.
WxDataArchive / Data Records for 2013-10-14
2013-10-13 October 2013 2013-10-15

Data Records for Monday, 14 October 2013

Time	Temp	Chill	HIndex	Humid	Dewpt	 Wind 	HiWind	WindDir	Rain 	Barom 
-----	----	-----	------	-----	-----	------	------	-------	-----	----- 
00:00	47.9	47.9	47.9	77	41.0	0	0	---	0.00	30.350 
00:05	47.9	47.9	47.9	77	41.0	0	1	315	0.00	30.350 
00:10	47.7	47.7	47.7	78	41.2	0	0	---	0.00	30.350 
00:15	47.7	47.7	47.7	78	41.2	0	1	315	0.00	30.351 
00:20	47.6	47.6	47.6	78	41.1	0	0	---	0.00	30.351 
00:25	47.6	47.6	47.6	78	41.1	0	1	315	0.00	30.351 
00:30	47.6	47.6	47.6	79	41.4	0	1	315	0.00	30.350 
00:35	47.4	47.4	47.4	79	41.2	0	1	315	0.00	30.350 
00:40	47.4	47.4	47.4	79	41.2	0	1	315	0.00	30.350 
00:45	47.3	47.3	47.3	79	41.1	0	0	---	0.00	30.346 
00:50	47.1	47.1	47.1	80	41.3	0	0	---	0.00	30.346 
00:55	47.0	47.0	47.0	80	41.2	0	0	---	0.00	30.346 
01:00	46.8	46.8	46.8	80	41.0	0	0	---	0.00	30.344 
01:05	46.8	46.8	46.8	80	41.0	0	0	---	0.00	30.344 
01:10	46.7	46.7	46.7	80	40.9	0	0	---	0.00	30.344 
01:15	46.5	46.5	46.5	81	41.0	0	0	---	0.00	30.344 
01:20	46.2	46.2	46.2	81	40.7	0	0	---	0.00	30.344 
01:25	46.1	46.1	46.1	81	40.6	0	0	---	0.00	30.344 
01:30	46.0	46.0	46.0	82	40.8	0	0	---	0.00	30.345 
01:35	45.8	45.8	45.8	82	40.6	0	0	---	0.00	30.345 
01:40	45.7	45.7	45.7	82	40.5	0	0	---	0.00	30.345 
01:45	45.4	45.4	45.4	83	40.5	0	0	---	0.00	30.346 
01:50	45.2	45.2	45.2	83	40.3	0	0	---	0.00	30.346 
01:55	45.2	45.2	45.2	84	40.7	0	0	---	0.00	30.346 
02:00	45.1	45.1	45.1	84	40.6	0	0	---	0.00	30.345 
02:05	44.9	44.9	44.9	84	40.4	0	0	---	0.00	30.345 
02:10	44.9	44.9	44.9	85	40.7	0	0	---	0.00	30.345 
02:15	44.8	44.8	44.8	85	40.6	0	0	---	0.00	30.343 
02:20	44.8	44.8	44.8	85	40.6	0	0	---	0.00	30.343 
02:25	44.6	44.6	44.6	85	40.4	0	0	---	0.00	30.343 
02:30	44.5	44.5	44.5	85	40.3	0	0	---	0.00	30.343 
02:35	44.3	44.3	44.3	86	40.4	0	0	---	0.00	30.343 
02:40	44.2	44.2	44.2	86	40.3	0	0	---	0.00	30.343 
02:45	44.2	44.2	44.2	86	40.3	0	0	---	0.00	30.344 
02:50	44.1	44.1	44.1	87	40.5	0	0	---	0.00	30.344 
02:55	44.1	44.1	44.1	87	40.5	0	0	---	0.00	30.344 
03:00	44.1	44.1	44.1	87	40.5	0	0	---	0.00	30.351 
03:05	43.9	43.9	43.9	87	40.3	0	0	---	0.00	30.351 
03:10	43.9	43.9	43.9	88	40.6	0	0	---	0.00	30.351 
03:15	43.9	43.9	43.9	88	40.6	0	0	---	0.00	30.350 
03:20	43.9	43.9	43.9	88	40.6	0	0	---	0.00	30.350 
03:25	43.9	43.9	43.9	88	40.6	0	0	---	0.00	30.350 
03:30	43.9	43.9	43.9	88	40.6	0	0	---	0.00	30.344 
03:35	43.9	43.9	43.9	88	40.6	0	0	---	0.00	30.344 
03:40	43.8	43.8	43.8	88	40.5	0	0	---	0.00	30.344 
03:45	43.8	43.8	43.8	89	40.8	0	0	---	0.00	30.343 
03:50	43.8	43.8	43.8	89	40.8	0	0	---	0.00	30.343 
03:55	43.8	43.8	43.8	89	40.8	0	0	---	0.00	30.343 
04:00	43.9	43.9	43.9	89	40.9	0	0	---	0.00	30.342 
04:05	43.9	43.9	43.9	89	40.9	0	0	---	0.00	30.342 
04:10	43.9	43.9	43.9	89	40.9	0	0	---	0.00	30.342 
04:15	43.9	43.9	43.9	89	40.9	0	0	---	0.00	30.344 
04:20	43.9	43.9	43.9	89	40.9	0	0	---	0.00	30.344 
04:25	43.8	43.8	43.8	89	40.8	0	0	---	0.00	30.344 
04:30	43.8	43.8	43.8	89	40.8	0	0	---	0.00	30.348 
04:35	43.6	43.6	43.6	89	40.6	0	0	---	0.00	30.348 
04:40	43.6	43.6	43.6	89	40.6	0	0	---	0.00	30.348 
04:45	43.6	43.6	43.6	90	40.9	0	1	315	0.00	30.349 
04:50	43.6	43.6	43.6	89	40.6	0	0	---	0.00	30.349 
04:55	43.5	43.5	43.5	89	40.5	0	0	---	0.00	30.349 
05:00	43.3	43.3	43.3	90	40.6	0	0	---	0.00	30.356 
05:05	43.1	43.1	43.1	89	40.1	0	0	---	0.00	30.356 
05:10	42.9	42.9	42.9	90	40.2	0	0	---	0.00	30.356 
05:15	42.8	42.8	42.8	90	40.1	0	0	---	0.00	30.362 
05:20	42.6	42.6	42.6	90	39.9	0	0	---	0.00	30.362 
05:25	42.5	42.5	42.5	90	39.8	0	0	---	0.00	30.362 
05:30	42.3	42.3	42.3	90	39.6	0	0	---	0.00	30.362 
05:35	42.1	42.1	42.1	90	39.4	0	0	---	0.00	30.362 
05:40	41.9	41.9	41.9	90	39.2	0	0	---	0.00	30.362 
05:45	41.8	41.8	41.8	90	39.1	0	0	---	0.00	30.361 
05:50	41.8	41.8	41.8	91	39.4	0	0	---	0.00	30.361 
05:55	41.6	41.6	41.6	91	39.2	0	0	---	0.00	30.361 
06:00	41.6	41.6	41.6	91	39.2	0	0	---	0.00	30.360 
06:05	41.5	41.5	41.5	91	39.1	0	0	---	0.00	30.360 
06:10	41.5	41.5	41.5	91	39.1	0	0	---	0.00	30.360 
06:15	41.5	41.5	41.5	91	39.1	0	0	---	0.00	30.365 
06:20	41.5	41.5	41.5	92	39.4	0	0	---	0.00	30.365 
06:25	41.6	41.6	41.6	92	39.5	0	0	---	0.00	30.365 
06:30	41.9	41.9	41.9	92	39.7	0	0	---	0.00	30.364 
06:35	42.1	42.1	42.1	92	39.9	0	0	---	0.00	30.364 
06:40	42.2	42.2	42.2	92	40.0	0	0	---	0.00	30.364 
06:45	42.2	42.2	42.2	92	40.0	0	0	---	0.00	30.364 
06:50	42.3	42.3	42.3	92	40.1	0	0	---	0.00	30.364 
06:55	42.3	42.3	42.3	92	40.1	0	0	---	0.00	30.364 
07:00	42.3	42.3	42.3	92	40.1	0	0	---	0.00	30.364 
07:05	42.5	42.5	42.5	93	40.6	0	0	---	0.00	30.364 
07:10	42.5	42.5	42.5	93	40.6	0	0	---	0.00	30.364 
07:15	42.5	42.5	42.5	93	40.6	0	0	---	0.00	30.367 
07:20	42.5	42.5	42.5	93	40.6	0	1	315	0.00	30.367 
07:25	42.6	42.6	42.6	93	40.7	0	0	---	0.00	30.367 
07:30	42.8	42.8	42.8	93	40.9	0	0	---	0.00	30.369 
07:35	42.9	42.9	42.9	93	41.0	0	0	---	0.00	30.369 
07:40	43.1	43.1	43.1	93	41.2	0	0	---	0.00	30.369 
07:45	43.1	43.1	43.1	93	41.2	0	1	315	0.00	30.372 
07:50	43.2	43.2	43.2	93	41.3	0	0	---	0.00	30.372 
07:55	43.2	43.2	43.2	93	41.3	0	0	---	0.00	30.372 
08:00	43.3	43.3	43.3	93	41.4	0	1	315	0.00	30.371 
08:05	43.5	43.5	43.5	93	41.6	0	0	---	0.00	30.371 
08:10	43.5	43.5	43.5	93	41.6	0	0	---	0.00	30.371 
08:15	43.6	43.6	43.6	93	41.7	0	1	315	0.00	30.373 
08:20	43.9	43.9	43.9	93	42.0	0	1	315	0.00	30.373 
08:25	44.1	44.1	44.1	93	42.2	0	2	315	0.00	30.373 
08:30	44.5	44.5	44.5	93	42.6	0	1	315	0.00	30.379 
08:35	44.8	44.8	44.8	93	42.9	0	2	315	0.00	30.379 
08:40	45.1	45.1	45.1	93	43.2	0	2	315	0.00	30.379 
08:45	45.4	45.4	45.4	93	43.5	0	2	315	0.00	30.373 
08:50	45.8	45.8	45.8	92	43.6	0	1	22	0.00	30.373 
08:55	46.1	46.1	46.1	92	43.9	0	3	112	0.00	30.373 
09:00	46.4	46.4	46.4	91	43.9	0	2	112	0.00	30.378 
09:05	46.8	46.8	46.8	91	44.3	0	4	112	0.00	30.378 
09:10	47.1	47.1	47.1	90	44.3	0	1	112	0.00	30.378 
09:15	47.4	47.4	47.4	90	44.6	0	1	112	0.00	30.381 
09:20	47.7	47.7	47.7	89	44.6	0	2	112	0.00	30.381 
09:25	48.2	48.2	48.2	88	44.8	0	3	112	0.00	30.381 
09:30	48.6	48.6	48.6	87	44.9	0	4	112	0.00	30.379 
09:35	48.9	48.9	48.9	87	45.2	0	4	112	0.00	30.379 
09:40	49.4	49.4	49.4	86	45.4	1	4	90	0.00	30.379 
09:45	49.8	49.8	49.8	85	45.5	1	5	90	0.00	30.380 
09:50	50.2	50.2	50.2	84	45.6	1	6	90	0.00	30.380 
09:55	50.7	50.7	50.7	83	45.7	2	7	112	0.00	30.380 
10:00	51.3	51.3	51.3	81	45.7	1	5	112	0.00	30.377 
10:05	52.0	52.0	52.0	81	46.4	0	3	90	0.00	30.377 
10:10	52.8	52.8	52.8	78	46.1	3	10	90	0.00	30.377 
10:15	53.5	53.5	53.5	78	46.8	1	7	90	0.00	30.380 
10:20	53.9	53.9	53.9	75	46.2	3	9	90	0.00	30.380 
10:25	54.5	54.5	54.5	75	46.7	2	7	90	0.00	30.380 
10:30	55.0	55.0	55.0	74	46.9	2	6	90	0.00	30.371 
10:35	55.4	55.4	55.4	74	47.3	2	4	112	0.00	30.371 
10:40	55.9	55.9	55.9	74	47.7	1	5	90	0.00	30.371 
10:45	56.5	56.5	56.5	73	47.9	1	3	90	0.00	30.363 
10:50	56.9	56.9	56.9	72	48.0	2	5	90	0.00	30.363 
10:55	57.2	57.2	57.2	74	49.0	2	5	90	0.00	30.363 
11:00	57.2	57.2	57.2	72	48.3	2	6	68	0.00	30.360 
11:05	56.6	56.6	56.6	74	48.4	2	7	90	0.00	30.360 
11:10	56.3	56.3	56.3	75	48.5	2	7	90	0.00	30.360 
11:15	56.9	56.9	56.9	76	49.4	2	5	112	0.00	30.358 
11:20	57.8	57.8	57.8	73	49.2	2	7	112	0.00	30.358 
11:25	58.4	58.4	58.4	73	49.8	2	7	112	0.00	30.358 
11:30	58.7	58.7	58.7	72	49.7	2	5	90	0.00	30.349 
11:35	59.0	59.0	59.0	71	49.6	2	5	90	0.00	30.349 
11:40	59.0	59.0	59.0	71	49.6	1	4	90	0.00	30.349 
11:45	59.3	59.3	59.3	70	49.5	2	6	90	0.00	30.350 
11:50	59.5	59.5	59.5	69	49.3	2	6	90	0.00	30.350 
11:55	58.9	58.9	58.9	72	49.9	2	5	90	0.00	30.350 
12:00	59.2	59.2	59.2	71	49.8	2	5	90	0.00	30.344 
12:05	59.3	59.3	59.3	70	49.5	2	6	112	0.00	30.344 
12:10	59.8	59.8	59.8	68	49.2	2	5	112	0.00	30.344 
12:15	60.1	60.1	60.1	67	49.1	2	4	90	0.00	30.339 
12:20	60.4	60.4	60.4	67	49.4	1	4	135	0.00	30.339 
12:25	61.0	61.0	61.0	66	49.6	2	5	90	0.00	30.339 
12:30	60.7	60.7	60.7	64	48.4	3	7	90	0.00	30.330 
12:35	60.1	60.1	60.1	67	49.1	1	4	90	0.00	30.330 
12:40	60.5	60.5	60.5	62	47.4	2	5	90	0.00	30.330 
12:45	61.2	61.2	61.2	64	48.9	2	7	112	0.00	30.325 
12:50	61.3	61.3	61.3	56	45.5	3	7	90	0.00	30.325 
12:55	61.3	61.3	61.3	58	46.4	2	5	90	0.00	30.325 
13:00	61.3	61.3	61.3	57	45.9	2	3	90	0.00	30.327 
13:05	61.3	61.3	61.3	59	46.8	1	6	90	0.00	30.327 
13:10	61.6	61.6	61.6	54	44.8	2	6	90	0.00	30.327 
13:15	61.8	61.8	61.8	55	45.5	1	3	90	0.00	30.326 
13:20	62.1	62.1	62.1	54	45.3	1	3	68	0.00	30.326 
13:25	62.6	62.6	62.6	52	44.7	1	3	112	0.00	30.326 
13:30	62.6	62.6	62.6	51	44.2	1	3	112	0.00	30.316 
13:35	62.4	62.4	62.4	50	43.5	1	4	90	0.00	30.316 
13:40	62.4	62.4	62.4	52	44.5	2	5	112	0.00	30.316 
13:45	62.6	62.6	62.6	51	44.2	1	6	90	0.00	30.310 
13:50	62.9	62.9	62.9	51	44.5	1	3	90	0.00	30.310 
13:55	62.9	62.9	62.9	49	43.4	1	4	90	0.00	30.310 
14:00	63.1	63.1	63.1	52	45.2	2	4	112	0.00	30.302 
14:05	63.2	63.2	63.2	49	43.7	1	3	90	0.00	30.302 
14:10	63.4	63.4	63.4	48	43.4	0	2	90	0.00	30.302 
14:15	63.5	63.5	63.5	49	44.0	1	4	90	0.00	30.296 
14:20	63.5	63.5	63.5	48	43.5	1	4	135	0.00	30.296 
14:25	63.7	63.7	63.7	46	42.5	1	4	112	0.00	30.296 
14:30	63.4	63.4	63.4	48	43.4	2	7	90	0.00	30.288 
14:35	63.4	63.4	63.4	47	42.8	0	1	90	0.00	30.288 
14:40	63.7	63.7	63.7	46	42.5	0	2	90	0.00	30.288 
14:45	63.7	63.7	63.7	47	43.1	0	2	90	0.00	30.283 
14:50	63.9	63.9	63.9	48	43.8	0	2	90	0.00	30.283 
14:55	63.9	63.9	63.9	46	42.7	2	4	90	0.00	30.283 
15:00	63.9	63.9	63.9	48	43.8	0	2	135	0.00	30.282 
15:05	63.9	63.9	63.9	48	43.8	1	4	135	0.00	30.282 
15:10	63.7	63.7	63.7	46	42.5	1	4	90	0.00	30.282 
15:15	63.7	63.7	63.7	47	43.1	1	4	90	0.00	30.281 
15:20	63.7	63.7	63.7	46	42.5	1	4	90	0.00	30.281 
15:25	64.0	64.0	64.0	48	43.9	0	2	90	0.00	30.281 
15:30	64.0	64.0	64.0	46	42.8	1	2	90	0.00	30.274 
15:35	64.0	64.0	64.0	45	42.2	0	2	68	0.00	30.274 
15:40	64.3	64.3	64.3	47	43.6	0	4	68	0.00	30.274 
15:45	64.2	64.2	64.2	45	42.4	1	3	112	0.00	30.267 
15:50	64.2	64.2	64.2	46	43.0	1	4	112	0.00	30.267 
15:55	64.3	64.3	64.3	46	43.1	1	4	112	0.00	30.267 
16:00	64.3	64.3	64.3	47	43.6	1	4	90	0.00	30.265 
16:05	64.3	64.3	64.3	45	42.5	0	2	112	0.00	30.265 
16:10	64.3	64.3	64.3	47	43.6	1	4	112	0.00	30.265 
16:15	64.2	64.2	64.2	46	43.0	1	4	112	0.00	30.263 
16:20	64.3	64.3	64.3	46	43.1	1	3	90	0.00	30.263 
16:25	64.2	64.2	64.2	47	43.5	0	4	90	0.00	30.263 
16:30	64.3	64.3	64.3	49	44.7	1	5	112	0.00	30.258 
16:35	64.2	64.2	64.2	46	43.0	1	3	112	0.00	30.258 
16:40	64.0	64.0	64.0	45	42.2	1	2	112	0.00	30.258 
16:45	64.0	64.0	64.0	47	43.4	0	1	112	0.00	30.253 
16:50	64.0	64.0	64.0	47	43.4	0	3	135	0.00	30.253 
16:55	64.0	64.0	64.0	47	43.4	0	3	135	0.00	30.253 
17:00	64.0	64.0	64.0	47	43.4	1	4	135	0.00	30.248 
17:05	64.0	64.0	64.0	46	42.8	1	4	90	0.00	30.248 
17:10	64.0	64.0	64.0	47	43.4	1	3	112	0.00	30.248 
17:15	64.0	64.0	64.0	47	43.4	1	4	112	0.00	30.244 
17:20	63.9	63.9	63.9	46	42.7	1	4	90	0.00	30.244 
17:25	63.9	63.9	63.9	46	42.7	2	5	90	0.00	30.244 
17:30	63.7	63.7	63.7	45	42.0	2	5	90	0.00	30.236 
17:35	63.7	63.7	63.7	45	42.0	1	2	90	0.00	30.236 
17:40	63.5	63.5	63.5	46	42.3	0	1	90	0.00	30.236 
17:45	63.5	63.5	63.5	46	42.3	0	2	90	0.00	30.237 
17:50	63.4	63.4	63.4	47	42.8	1	4	135	0.00	30.237 
17:55	63.2	63.2	63.2	47	42.6	1	3	90	0.00	30.237 
18:00	63.2	63.2	63.2	46	42.1	1	5	112	0.00	30.241 
18:05	63.2	63.2	63.2	47	42.6	1	3	112	0.00	30.241 
18:10	63.1	63.1	63.1	47	42.5	1	3	112	0.00	30.241 
18:15	62.9	62.9	62.9	47	42.4	1	4	90	0.00	30.244 
18:20	62.7	62.7	62.7	47	42.2	1	2	90	0.00	30.244 
18:25	62.6	62.6	62.6	48	42.6	1	2	90	0.00	30.244 
18:30	62.4	62.4	62.4	48	42.4	1	3	90	0.00	30.243 
18:35	62.1	62.1	62.1	49	42.7	0	2	90	0.00	30.243 
18:40	61.8	61.8	61.8	50	43.0	0	1	90	0.00	30.243 
18:45	61.5	61.5	61.5	50	42.7	1	2	90	0.00	30.242 
18:50	61.2	61.2	61.2	51	42.9	0	2	90	0.00	30.242 
18:55	60.7	60.7	60.7	52	43.0	0	2	90	0.00	30.242 
19:00	60.4	60.4	60.4	53	43.2	0	2	90	0.00	30.244 
19:05	59.9	59.9	59.9	54	43.2	0	1	90	0.00	30.244 
19:10	59.5	59.5	59.5	55	43.3	0	1	90	0.00	30.244 
19:15	59.0	59.0	59.0	56	43.3	0	1	90	0.00	30.239 
19:20	58.6	58.6	58.6	57	43.4	0	1	90	0.00	30.239 
19:25	58.1	58.1	58.1	57	42.9	0	0	---	0.00	30.239 
19:30	57.6	57.6	57.6	58	42.9	0	0	---	0.00	30.237 
19:35	57.2	57.2	57.2	59	43.0	0	0	---	0.00	30.237 
19:40	56.7	56.7	56.7	60	43.0	0	0	---	0.00	30.237 
19:45	56.3	56.3	56.3	61	43.0	0	0	---	0.00	30.238 
19:50	55.9	55.9	55.9	62	43.1	0	0	---	0.00	30.238 
19:55	55.4	55.4	55.4	63	43.0	0	0	---	0.00	30.238 
20:00	55.1	55.1	55.1	62	42.3	0	0	---	0.00	30.235 
20:05	55.0	55.0	55.0	63	42.6	0	1	90	0.00	30.235 
20:10	54.7	54.7	54.7	63	42.4	0	0	---	0.00	30.235 
20:15	54.4	54.4	54.4	64	42.5	0	0	---	0.00	30.232 
20:20	54.1	54.1	54.1	65	42.6	0	0	---	0.00	30.232 
20:25	53.8	53.8	53.8	65	42.3	0	1	90	0.00	30.232 
20:30	53.9	53.9	53.9	65	42.4	0	2	90	0.00	30.232 
20:35	53.9	53.9	53.9	65	42.4	0	2	90	0.00	30.232 
20:40	53.9	53.9	53.9	64	42.0	0	2	90	0.00	30.232 
20:45	54.1	54.1	54.1	64	42.2	0	2	90	0.00	30.228 
20:50	54.2	54.2	54.2	64	42.3	1	2	90	0.00	30.228 
20:55	54.2	54.2	54.2	64	42.3	1	3	90	0.00	30.228 
21:00	54.1	54.1	54.1	65	42.6	1	3	90	0.00	30.227 
21:05	54.1	54.1	54.1	65	42.6	1	2	90	0.00	30.227 
21:10	53.9	53.9	53.9	67	43.2	1	3	90	0.00	30.227 
21:15	53.9	53.9	53.9	68	43.6	0	3	68	0.00	30.228 
21:20	53.9	53.9	53.9	69	44.0	1	3	45	0.00	30.228 
21:25	53.9	53.9	53.9	71	44.7	0	2	45	0.00	30.228 
21:30	53.8	53.8	53.8	72	45.0	1	4	68	0.00	30.239 
21:35	53.8	53.8	53.8	73	45.3	1	5	68	0.00	30.239 
21:40	53.6	53.6	53.6	73	45.2	0	2	90	0.00	30.239 
21:45	53.6	53.6	53.6	74	45.5	1	5	90	0.00	30.250 
21:50	53.5	53.5	53.5	74	45.4	1	3	90	0.00	30.250 
21:55	53.5	53.5	53.5	75	45.8	1	4	90	0.00	30.250 
22:00	53.2	53.2	53.2	75	45.5	1	3	90	0.00	30.249 
22:05	53.1	53.1	53.1	76	45.7	1	3	90	0.00	30.249 
22:10	52.9	52.9	52.9	76	45.5	1	3	90	0.00	30.249 
22:15	52.8	52.8	52.8	77	45.8	0	2	90	0.00	30.244 
22:20	52.5	52.5	52.5	77	45.5	0	2	90	0.00	30.244 
22:25	52.3	52.3	52.3	78	45.6	0	1	90	0.00	30.244 
22:30	52.0	52.0	52.0	78	45.4	0	1	90	0.00	30.246 
22:35	51.9	51.9	51.9	78	45.3	0	1	90	0.00	30.246 
22:40	51.7	51.7	51.7	79	45.4	0	1	90	0.00	30.246 
22:45	51.6	51.6	51.6	79	45.3	0	1	90	0.00	30.247 
22:50	51.4	51.4	51.4	79	45.1	0	1	90	0.00	30.247 
22:55	51.3	51.3	51.3	79	45.0	0	2	90	0.00	30.247 
23:00	51.1	51.1	51.1	79	44.8	0	2	90	0.00	30.234 
23:05	51.0	51.0	51.0	80	45.0	0	2	90	0.00	30.234 
23:10	51.0	51.0	51.0	80	45.0	0	2	90	0.00	30.234 
23:15	50.8	50.8	50.8	80	44.9	1	3	90	0.00	30.232 
23:20	50.8	50.8	50.8	80	44.9	1	3	90	0.00	30.232 
23:25	50.7	50.7	50.7	80	44.8	0	3	90	0.00	30.232 
23:30	50.5	50.5	50.5	80	44.6	0	2	90	0.00	30.222 
23:35	50.4	50.4	50.4	81	44.8	0	2	90	0.00	30.222 
23:40	50.4	50.4	50.4	81	44.8	0	3	90	0.00	30.222 
23:45	50.2	50.2	50.2	81	44.6	0	3	90	0.00	30.221 
23:50	50.1	50.1	50.1	82	44.8	0	2	90	0.00	30.221 
23:55	49.9	49.9	49.9	82	44.6	0	1	90	0.00	30.221 

CoCoRaHS
IN-AL-39
A2 Web Hosting
Creative Commons License
GoDaddy
search engine by freefind advanced

loaded 2018-11-18 11:27:27 • last modified 2010-11-18 10:43:29
Privacy PolicyDisclaimer
• wx.awcolley.com is powered by PmWiki v.2002016 •
• all content (unless otherwise noted) © 2018 A W Colley